Time;durP1;ratioP1;P1;durP2;ratioP2;P2;SDS_P1;SDS_P2;PMS_P1;PMS_P2;Temp;Humidity;BMP_temperature;BMP_pressure;BME280_temperature;BME280_humidity;BME280_pressure;Samples;Min_cycle;Max_cycle;Signal;HPM_P1;HPM_P2
2022/09/13 00:01:18;;;;;;;22.90;13.77;;;18.10;99.90;;;;;;5032587;28;20041;-67
2022/09/13 00:03:43;;;;;;;24.63;15.63;;;18.00;99.90;;;;;;5032366;28;20095;-67
2022/09/13 00:06:15;;;;;;;21.13;14.10;;;18.00;99.90;;;;;;5031273;28;20410;-67
2022/09/13 00:08:41;;;;;;;25.90;14.13;;;17.90;99.90;;;;;;5032261;28;20565;-67
2022/09/13 00:11:13;;;;;;;21.00;13.50;;;17.90;99.90;;;;;;5032563;28;20037;-68
2022/09/13 00:13:39;;;;;;;22.77;14.50;;;17.90;99.90;;;;;;5032221;28;20586;-68
2022/09/13 00:16:11;;;;;;;19.30;13.50;;;17.80;99.90;;;;;;5030808;28;20120;-68
2022/09/13 00:18:36;;;;;;;21.83;13.45;;;17.80;99.90;;;;;;5032373;28;20044;-68
2022/09/13 00:21:11;;;;;;;19.00;13.52;;;17.80;99.90;;;;;;5032213;28;20067;-68
2022/09/13 00:23:37;;;;;;;21.55;13.45;;;17.70;99.90;;;;;;5032372;28;20317;-69
2022/09/13 00:26:05;;;;;;;20.27;13.98;;;17.70;99.90;;;;;;5031935;28;20069;-69
2022/09/13 00:28:30;;;;;;;23.08;13.50;;;17.60;99.90;;;;;;5030764;28;20049;-69
2022/09/13 00:31:03;;;;;;;20.10;13.85;;;17.60;99.90;;;;;;5031685;28;20676;-68
2022/09/13 00:33:29;;;;;;;19.98;13.75;;;17.60;99.90;;;;;;5030479;28;20038;-69
2022/09/13 00:35:54;;;;;;;17.25;11.52;;;17.60;99.90;;;;;;5031804;28;20510;-68
2022/09/13 00:38:20;;;;;;;18.70;13.07;;;17.60;99.90;;;;;;5031914;28;20049;-68
2022/09/13 00:40:45;;;;;;;17.08;10.38;;;17.60;99.90;;;;;;5031987;28;20041;-68
2022/09/13 00:43:18;;;;;;;16.08;10.88;;;17.60;99.90;;;;;;5031883;28;20045;-68
2022/09/13 00:45:45;;;;;;;18.85;11.02;;;17.60;99.90;;;;;;5031703;28;20068;-68
2022/09/13 00:48:19;;;;;;;13.77;10.82;;;17.60;99.90;;;;;;5030801;28;20053;-68
2022/09/13 00:50:50;;;;;;;14.65;10.90;;;17.60;99.90;;;;;;5031747;28;20522;-68
2022/09/13 00:53:25;;;;;;;18.05;11.73;;;17.60;99.90;;;;;;5040123;23;20050;-67
2022/09/13 00:55:58;;;;;;;14.95;10.68;;;17.60;99.90;;;;;;5011690;28;20129;-69
2022/09/13 00:58:43;;;;;;;16.35;11.32;;;17.50;99.90;;;;;;4994365;28;20108;-69
2022/09/13 01:01:13;;;;;;;15.10;10.63;;;17.50;99.90;;;;;;4994542;28;20042;-69
2022/09/13 01:03:40;;;;;;;15.18;10.80;;;17.40;99.90;;;;;;5008095;28;20467;-70
2022/09/13 01:06:09;;;;;;;14.85;10.93;;;17.40;99.90;;;;;;5011774;28;20044;-69
2022/09/13 01:08:36;;;;;;;19.70;11.73;;;17.50;99.90;;;;;;5011659;28;20082;-69
2022/09/13 01:11:05;;;;;;;16.27;10.80;;;17.50;99.90;;;;;;5010674;28;20038;-69
2022/09/13 01:13:32;;;;;;;13.98;11.30;;;17.50;99.90;;;;;;5011800;28;20103;-70
2022/09/13 01:15:59;;;;;;;22.17;13.55;;;17.40;99.90;;;;;;5011605;28;20057;-69
2022/09/13 01:18:25;;;;;;;16.50;11.88;;;17.40;99.90;;;;;;5011810;28;20050;-69
2022/09/13 01:20:53;;;;;;;17.75;12.02;;;17.40;99.90;;;;;;5010709;28;20459;-69
2022/09/13 01:23:59;;;;;;;15.40;11.50;;;17.40;99.90;;;;;;5010669;28;20408;-69
2022/09/13 01:26:25;;;;;;;17.23;11.63;;;17.40;99.90;;;;;;5011858;28;20038;-69
2022/09/13 01:29:09;;;;;;;15.38;12.07;;;17.40;99.90;;;;;;5010358;28;20119;-69
2022/09/13 01:32:02;;;;;;;17.38;11.95;;;17.40;99.90;;;;;;5009802;28;20562;-69
2022/09/13 01:34:41;;;;;;;17.83;11.63;;;17.40;99.90;;;;;;5010182;28;20088;-69
2022/09/13 01:37:27;;;;;;;18.80;12.50;;;17.40;99.90;;;;;;5011706;28;20454;-69
2022/09/13 01:40:04;;;;;;;18.38;12.65;;;17.40;99.90;;;;;;5010324;28;20049;-68
2022/09/13 01:42:32;;;;;;;18.70;13.32;;;17.40;99.90;;;;;;5010491;28;20403;-68
2022/09/13 01:45:28;;;;;;;20.08;12.90;;;17.40;99.90;;;;;;5009950;28;20049;-68
2022/09/13 01:48:12;;;;;;;20.08;13.23;;;17.40;99.90;;;;;;5014066;28;20041;-68
2022/09/13 01:50:59;;;;;;;18.80;13.10;;;17.40;99.90;;;;;;5015171;28;20058;-68
2022/09/13 01:53:57;;;;;;;20.67;12.93;;;17.40;99.90;;;;;;5015052;28;20042;-68
2022/09/13 01:56:37;;;;;;;17.27;12.55;;;17.40;99.90;;;;;;4991983;28;20046;-68
2022/09/13 01:59:14;;;;;;;21.80;14.38;;;17.40;99.90;;;;;;5013831;28;20085;-68
2022/09/13 02:01:49;;;;;;;21.38;13.35;;;17.40;99.90;;;;;;5015103;28;20088;-68
2022/09/13 02:04:22;;;;;;;19.02;13.63;;;17.40;99.90;;;;;;5013758;28;20042;-68
2022/09/13 02:07:04;;;;;;;18.88;13.35;;;17.40;99.90;;;;;;5013775;28;20068;-68
2022/09/13 02:09:34;;;;;;;24.70;14.80;;;17.40;99.90;;;;;;5014708;28;20037;-68
2022/09/13 02:12:12;;;;;;;20.00;14.05;;;17.40;99.90;;;;;;5014924;28;20515;-68
2022/09/13 02:14:40;;;;;;;19.05;14.15;;;17.40;99.90;;;;;;5014693;28;20041;-68
2022/09/13 02:17:11;;;;;;;19.17;14.18;;;17.30;99.90;;;;;;5014894;28;20092;-68
2022/09/13 02:19:54;;;;;;;22.55;14.90;;;17.30;99.90;;;;;;5014802;28;20096;-68
2022/09/13 02:22:26;;;;;;;20.75;15.23;;;17.30;99.90;;;;;;5014715;28;20084;-68
2022/09/13 02:24:56;;;;;;;23.85;15.30;;;17.30;99.90;;;;;;5013146;28;20042;-68
2022/09/13 02:27:27;;;;;;;21.63;15.57;;;17.30;99.90;;;;;;5014875;28;20400;-68
2022/09/13 02:29:57;;;;;;;20.10;14.10;;;17.30;99.90;;;;;;5013284;28;20046;-68
2022/09/13 02:32:32;;;;;;;21.02;15.32;;;17.30;99.90;;;;;;5014380;28;20045;-68
2022/09/13 02:35:15;;;;;;;25.92;15.95;;;17.30;99.90;;;;;;4996817;28;20046;-68
2022/09/13 02:37:44;;;;;;;20.00;14.07;;;17.40;99.90;;;;;;5014631;28;20042;-68
2022/09/13 02:40:16;;;;;;;21.90;15.68;;;17.40;99.90;;;;;;5012964;28;20053;-68
2022/09/13 02:42:56;;;;;;;23.10;15.02;;;17.40;99.90;;;;;;5013283;28;20393;-68
2022/09/13 02:45:29;;;;;;;23.42;16.50;;;17.40;99.90;;;;;;5012762;28;20053;-68
2022/09/13 02:47:59;;;;;;;22.15;16.05;;;17.40;99.90;;;;;;5014407;28;20049;-68
2022/09/13 02:50:43;;;;;;;21.05;15.68;;;17.40;99.90;;;;;;5012848;28;20408;-68
2022/09/13 02:53:34;;;;;;;21.33;15.90;;;17.40;99.90;;;;;;4996242;28;20041;-68
2022/09/13 02:56:34;;;;;;;23.13;16.20;;;17.50;99.90;;;;;;5013721;28;20077;-68
2022/09/13 02:59:08;;;;;;;23.35;15.52;;;17.40;99.90;;;;;;5010295;28;20061;-68
2022/09/13 03:01:36;;;;;;;23.45;16.63;;;17.40;99.90;;;;;;5013848;28;20038;-68
2022/09/13 03:04:02;;;;;;;28.27;18.38;;;17.40;99.90;;;;;;5013665;28;20089;-68
2022/09/13 03:06:28;;;;;;;32.63;18.58;;;17.40;99.90;;;;;;5012566;28;20069;-68
2022/09/13 03:08:59;;;;;;;29.55;18.92;;;17.40;99.90;;;;;;5012426;28;20117;-68
2022/09/13 03:11:53;;;;;;;25.05;16.77;;;17.40;99.90;;;;;;5013848;28;20117;-68
2022/09/13 03:14:35;;;;;;;25.98;18.30;;;17.40;99.90;;;;;;5012569;28;20068;-68
2022/09/13 03:17:18;;;;;;;27.02;18.40;;;17.40;99.90;;;;;;5013591;28;20484;-68
2022/09/13 03:20:05;;;;;;;26.77;19.42;;;17.40;99.90;;;;;;5013730;28;20046;-68
2022/09/13 03:22:38;;;;;;;28.02;18.38;;;17.50;99.90;;;;;;5012457;28;20061;-68
2022/09/13 03:25:19;;;;;;;26.10;19.20;;;17.50;99.90;;;;;;5012247;28;20038;-68
2022/09/13 03:28:11;;;;;;;29.77;18.55;;;17.50;99.90;;;;;;5012277;28;20038;-68
2022/09/13 03:30:41;;;;;;;27.25;18.30;;;17.50;99.90;;;;;;5012949;28;20360;-68
2022/09/13 03:33:28;;;;;;;28.40;19.80;;;17.50;99.90;;;;;;5013334;28;20503;-68
2022/09/13 03:36:01;;;;;;;28.70;18.60;;;17.50;99.90;;;;;;5013089;28;20487;-68
2022/09/13 03:39:02;;;;;;;28.33;18.63;;;17.50;99.90;;;;;;5013283;28;20373;-68
2022/09/13 03:41:34;;;;;;;29.77;18.42;;;17.50;99.90;;;;;;4988571;28;20543;-68
2022/09/13 03:44:08;;;;;;;26.08;17.70;;;17.50;99.90;;;;;;5011664;28;20078;-68
2022/09/13 03:46:47;;;;;;;30.05;18.77;;;17.50;99.90;;;;;;5011863;28;20419;-68
2022/09/13 03:49:15;;;;;;;24.73;17.95;;;17.50;99.90;;;;;;5013075;28;20046;-68
2022/09/13 03:51:44;;;;;;;26.90;18.52;;;17.50;99.90;;;;;;5012983;28;20034;-68
2022/09/13 03:54:15;;;;;;;25.85;17.70;;;17.60;99.90;;;;;;5012797;28;20037;-68
2022/09/13 03:56:41;;;;;;;25.35;18.65;;;17.60;99.90;;;;;;5013027;28;20436;-69
2022/09/13 03:59:06;;;;;;;28.30;18.13;;;17.60;99.90;;;;;;5012835;28;20042;-68
2022/09/13 04:01:32;;;;;;;25.50;18.20;;;17.50;99.90;;;;;;5013043;28;20073;-68
2022/09/13 04:03:57;;;;;;;29.58;19.52;;;17.50;99.90;;;;;;5012791;28;20407;-68
2022/09/13 04:06:24;;;;;;;26.60;17.92;;;17.50;99.90;;;;;;5012858;28;20444;-68
2022/09/13 04:08:49;;;;;;;29.05;20.25;;;17.50;99.90;;;;;;5011913;28;20041;-68
2022/09/13 04:11:15;;;;;;;28.27;18.92;;;17.40;99.90;;;;;;5012716;28;20030;-68
2022/09/13 04:13:41;;;;;;;25.40;19.08;;;17.50;99.90;;;;;;4994762;28;20050;-69
2022/09/13 04:16:07;;;;;;;28.38;19.70;;;17.60;99.90;;;;;;5011379;28;20124;-68
2022/09/13 04:18:33;;;;;;;26.30;18.80;;;17.50;99.90;;;;;;5011581;28;20455;-69
2022/09/13 04:21:00;;;;;;;34.38;20.15;;;17.60;99.90;;;;;;5012543;28;20080;-68
2022/09/13 04:23:27;;;;;;;29.27;19.90;;;17.60;99.90;;;;;;5012458;28;20156;-69
2022/09/13 04:25:53;;;;;;;29.00;19.48;;;17.50;99.90;;;;;;5012217;28;20103;-68
2022/09/13 04:28:20;;;;;;;28.95;19.65;;;17.60;99.90;;;;;;5012246;28;20034;-68
2022/09/13 04:30:47;;;;;;;31.45;19.70;;;17.60;99.90;;;;;;5011839;28;20562;-68
2022/09/13 04:33:13;;;;;;;33.78;20.13;;;17.60;99.90;;;;;;5011017;28;20381;-68
2022/09/13 04:35:39;;;;;;;30.13;19.88;;;17.60;99.90;;;;;;5010675;28;20049;-68
2022/09/13 04:38:06;;;;;;;32.08;18.48;;;17.60;99.90;;;;;;5012150;28;20033;-68
2022/09/13 04:40:32;;;;;;;28.17;19.25;;;17.60;99.90;;;;;;5012121;28;20481;-68
2022/09/13 04:42:59;;;;;;;29.67;19.23;;;17.50;99.90;;;;;;4994676;28;20049;-68
2022/09/13 04:45:24;;;;;;;26.63;18.98;;;17.50;99.90;;;;;;5012042;28;20077;-69
2022/09/13 04:47:55;;;;;;;25.70;19.52;;;17.50;99.90;;;;;;5010899;28;20041;-68
2022/09/13 04:50:27;;;;;;;34.42;20.58;;;17.50;99.90;;;;;;5010765;28;20050;-68
2022/09/13 04:52:55;;;;;;;29.75;19.27;;;17.50;99.90;;;;;;5011827;28;20048;-68
2022/09/13 04:55:21;;;;;;;27.90;20.05;;;17.50;99.90;;;;;;5010493;28;20042;-68
2022/09/13 04:57:51;;;;;;;26.05;19.23;;;17.50;99.90;;;;;;5010731;28;20057;-68
2022/09/13 05:00:16;;;;;;;29.20;18.45;;;17.50;99.90;;;;;;5010811;28;20042;-69
2022/09/13 05:02:43;;;;;;;29.63;19.98;;;17.60;99.90;;;;;;5011959;28;20037;-68
2022/09/13 05:05:08;;;;;;;30.33;20.08;;;17.60;99.90;;;;;;5010362;28;20508;-68
2022/09/13 05:07:34;;;;;;;34.38;20.33;;;17.60;99.90;;;;;;5011877;28;20120;-68
2022/09/13 05:10:00;;;;;;;31.45;20.80;;;17.60;99.90;;;;;;5010438;28;20042;-68
2022/09/13 05:12:25;;;;;;;29.50;20.13;;;17.60;99.90;;;;;;5011958;28;20042;-68
2022/09/13 05:14:51;;;;;;;32.08;21.80;;;17.50;99.90;;;;;;5010388;28;20034;-69
2022/09/13 05:17:16;;;;;;;30.98;20.80;;;17.60;99.90;;;;;;5011912;28;20037;-68
2022/09/13 05:19:42;;;;;;;28.52;20.35;;;17.60;99.90;;;;;;5012082;28;20042;-68
2022/09/13 05:22:10;;;;;;;34.05;21.33;;;17.60;99.90;;;;;;5015648;28;20042;-68
2022/09/13 05:24:36;;;;;;;27.73;19.80;;;17.60;99.90;;;;;;5015412;28;20045;-68
2022/09/13 05:27:02;;;;;;;30.77;20.17;;;17.60;99.90;;;;;;5014470;28;20046;-68
2022/09/13 05:29:27;;;;;;;33.45;19.63;;;17.60;99.90;;;;;;5015557;28;20049;-68
2022/09/13 05:31:53;;;;;;;26.63;18.80;;;17.60;99.90;;;;;;5015661;28;20113;-68
2022/09/13 05:34:18;;;;;;;35.05;20.20;;;17.60;99.90;;;;;;5014349;28;20298;-68
2022/09/13 05:36:44;;;;;;;28.60;19.27;;;17.60;99.90;;;;;;4996821;28;20042;-68
2022/09/13 05:39:16;;;;;;;26.42;17.30;;;17.60;99.90;;;;;;5015665;28;20034;-68
2022/09/13 05:41:43;;;;;;;28.65;16.90;;;17.70;99.90;;;;;;5014903;28;20050;-68
2022/09/13 05:44:08;;;;;;;29.40;17.25;;;17.70;99.90;;;;;;5014574;28;20041;-68
2022/09/13 05:46:34;;;;;;;24.17;16.00;;;17.70;99.90;;;;;;5014168;28;20064;-68
2022/09/13 05:49:00;;;;;;;23.42;15.98;;;17.70;99.90;;;;;;5013970;28;20117;-68
2022/09/13 05:51:27;;;;;;;23.95;16.55;;;17.70;99.90;;;;;;5015518;28;20062;-68
2022/09/13 05:53:57;;;;;;;25.38;16.70;;;17.70;99.90;;;;;;5014786;28;20049;-68
2022/09/13 05:56:28;;;;;;;24.52;15.85;;;17.70;99.90;;;;;;5014170;28;20053;-68
2022/09/13 05:58:54;;;;;;;22.13;15.27;;;17.80;99.90;;;;;;5015175;28;20042;-68
2022/09/13 06:01:25;;;;;;;24.70;15.15;;;17.80;99.90;;;;;;5013809;28;20041;-68
2022/09/13 06:03:52;;;;;;;29.42;15.13;;;17.80;99.90;;;;;;5014923;28;20091;-68
2022/09/13 06:06:20;;;;;;;22.13;14.95;;;17.80;99.90;;;;;;5013920;28;20045;-68
2022/09/13 06:08:46;;;;;;;21.52;14.35;;;17.80;99.90;;;;;;5014783;28;20080;-68
2022/09/13 06:11:13;;;;;;;23.85;14.60;;;17.90;99.90;;;;;;5015063;28;20102;-68
2022/09/13 06:13:40;;;;;;;19.88;15.15;;;17.80;99.90;;;;;;5014776;28;20049;-68
2022/09/13 06:16:09;;;;;;;24.27;14.07;;;17.90;99.90;;;;;;5013361;28;20042;-68
2022/09/13 06:18:35;;;;;;;18.88;13.23;;;17.80;99.90;;;;;;5014973;28;20046;-68
2022/09/13 06:21:06;;;;;;;20.05;13.38;;;17.90;99.90;;;;;;5014611;28;20538;-68
2022/09/13 06:23:33;;;;;;;16.75;12.77;;;17.90;99.90;;;;;;5013447;28;20042;-68
2022/09/13 06:26:11;;;;;;;18.30;13.35;;;17.90;99.90;;;;;;5014383;28;20558;-68
2022/09/13 06:28:37;;;;;;;17.58;11.65;;;17.90;99.90;;;;;;5013164;28;20056;-69
2022/09/13 06:31:13;;;;;;;14.23;11.77;;;17.90;99.90;;;;;;5014044;28;20038;-68
2022/09/13 06:33:41;;;;;;;15.32;11.07;;;17.90;99.90;;;;;;4996700;28;20045;-69
2022/09/13 06:36:09;;;;;;;19.38;11.75;;;17.90;99.90;;;;;;5012952;28;20061;-68
2022/09/13 06:38:35;;;;;;;15.63;10.18;;;18.00;99.90;;;;;;5014562;28;20067;-69
2022/09/13 06:41:05;;;;;;;15.48;10.50;;;17.90;99.90;;;;;;5013277;28;20046;-68
2022/09/13 06:43:31;;;;;;;15.20;9.40;;;17.90;99.90;;;;;;5014415;28;20481;-68
2022/09/13 06:46:06;;;;;;;13.95;8.25;;;17.90;99.90;;;;;;5014098;28;20292;-68
2022/09/13 06:48:37;;;;;;;12.02;7.20;;;18.00;99.90;;;;;;5012861;28;20092;-69
2022/09/13 06:51:05;;;;;;;7.78;5.57;;;18.00;99.90;;;;;;5013202;28;20397;-68
2022/09/13 06:53:32;;;;;;;8.32;5.15;;;17.90;99.90;;;;;;5012885;28;20411;-69
2022/09/13 06:56:06;;;;;;;8.88;4.53;;;17.90;99.90;;;;;;5013936;28;20038;-69
2022/09/13 06:58:33;;;;;;;6.32;4.30;;;18.00;99.90;;;;;;5012799;28;20041;-68
2022/09/13 07:01:14;;;;;;;10.70;3.47;;;17.90;99.90;;;;;;5012663;28;20492;-68
2022/09/13 07:03:45;;;;;;;8.70;3.97;;;17.90;99.90;;;;;;5014003;28;20038;-69
2022/09/13 07:06:14;;;;;;;7.45;3.08;;;17.90;99.90;;;;;;5012675;28;20096;-69
2022/09/13 07:08:40;;;;;;;6.25;3.00;;;17.90;99.90;;;;;;5013638;28;20096;-68
2022/09/13 07:11:07;;;;;;;7.40;2.35;;;17.90;99.90;;;;;;5012589;28;20052;-68
2022/09/13 07:13:32;;;;;;;4.68;2.40;;;17.90;99.90;;;;;;5012379;28;20042;-68
2022/09/13 07:16:07;;;;;;;5.53;2.70;;;17.90;99.90;;;;;;4996186;28;20045;-68
2022/09/13 07:18:32;;;;;;;8.85;2.72;;;17.90;99.90;;;;;;5013894;28;20034;-68
2022/09/13 07:21:06;;;;;;;5.78;2.70;;;17.90;99.90;;;;;;5013786;28;20038;-69
2022/09/13 07:23:33;;;;;;;9.77;3.03;;;17.90;99.90;;;;;;5013518;28;20113;-68
2022/09/13 07:26:04;;;;;;;6.45;3.08;;;17.90;99.90;;;;;;5011884;28;20045;-68
2022/09/13 07:28:38;;;;;;;8.38;2.95;;;17.90;99.90;;;;;;5012190;28;20076;-68
2022/09/13 07:31:12;;;;;;;5.68;2.83;;;18.00;99.90;;;;;;5012954;28;20081;-68
2022/09/13 07:33:40;;;;;;;7.15;2.90;;;17.90;99.90;;;;;;5011993;28;20073;-68
2022/09/13 07:36:06;;;;;;;7.05;2.88;;;17.90;99.90;;;;;;5013079;28;20042;-68
2022/09/13 07:38:36;;;;;;;6.25;2.50;;;17.90;99.90;;;;;;5012096;28;20121;-68
2022/09/13 07:41:05;;;;;;;6.03;2.80;;;17.90;99.90;;;;;;4995754;28;20042;-68
2022/09/13 07:43:32;;;;;;;3.28;2.58;;;17.90;99.90;;;;;;5012265;28;20038;-68
2022/09/13 07:46:03;;;;;;;6.05;2.50;;;17.90;99.90;;;;;;5011604;28;20067;-68
2022/09/13 07:48:31;;;;;;;7.68;2.60;;;18.00;99.90;;;;;;4995375;28;20053;-68
2022/09/13 07:51:02;;;;;;;6.85;2.97;;;18.10;99.90;;;;;;4995725;28;20052;-68
2022/09/13 07:53:28;;;;;;;9.98;2.58;;;18.10;99.90;;;;;;5011603;28;20081;-68
2022/09/13 07:55:59;;;;;;;6.68;2.40;;;18.10;99.90;;;;;;5012859;28;20034;-68
2022/09/13 07:58:25;;;;;;;9.50;2.65;;;18.10;99.90;;;;;;5011903;28;20072;-68
2022/09/13 08:00:50;;;;;;;7.03;2.58;;;18.10;99.90;;;;;;5012939;28;20128;-68
2022/09/13 08:03:16;;;;;;;9.27;2.20;;;18.10;99.90;;;;;;5012685;28;20040;-68
2022/09/13 08:05:42;;;;;;;5.05;2.20;;;18.20;99.90;;;;;;5011551;28;20030;-68
2022/09/13 08:08:07;;;;;;;7.40;2.05;;;18.30;99.90;;;;;;5011483;28;20129;-69
2022/09/13 08:10:33;;;;;;;7.57;2.00;;;18.30;99.90;;;;;;5011409;28;20132;-68
2022/09/13 08:13:00;;;;;;;8.23;2.08;;;18.30;99.90;;;;;;5012648;28;20038;-68
2022/09/13 08:15:32;;;;;;;5.45;1.90;;;18.30;99.90;;;;;;5109317;27;20400;-69
2022/09/13 08:17:58;;;;;;;5.05;1.95;;;18.40;99.90;;;;;;5091389;28;20073;-69
2022/09/13 08:20:23;;;;;;;7.88;1.88;;;18.40;99.90;;;;;;5109916;28;20034;-68
2022/09/13 08:22:49;;;;;;;6.25;1.77;;;18.40;99.90;;;;;;5109559;28;20044;-69
2022/09/13 08:25:15;;;;;;;7.43;1.90;;;18.40;99.90;;;;;;5109233;28;20089;-69
2022/09/13 08:27:40;;;;;;;7.88;2.03;;;18.50;99.90;;;;;;5091333;28;20048;-69
2022/09/13 08:30:06;;;;;;;12.02;2.25;;;18.50;99.90;;;;;;5107909;28;20044;-69
2022/09/13 08:32:32;;;;;;;8.30;1.85;;;18.60;99.90;;;;;;5109497;28;20453;-70
2022/09/13 08:34:57;;;;;;;5.40;1.50;;;18.50;99.90;;;;;;5109109;28;20136;-67
2022/09/13 08:37:23;;;;;;;7.15;1.50;;;18.60;99.90;;;;;;5109414;28;20032;-67
2022/09/13 08:39:48;;;;;;;4.32;1.33;;;18.60;99.90;;;;;;5109185;28;20116;-67
2022/09/13 08:42:43;;;;;;;4.20;1.23;;;18.60;99.90;;;;;;5109146;28;20047;-67
2022/09/13 08:45:09;;;;;;;7.93;1.35;;;18.60;99.90;;;;;;5091540;28;20044;-69
2022/09/13 08:47:46;;;;;;;9.32;1.40;;;18.70;99.90;;;;;;5109231;28;20043;-67
2022/09/13 08:50:14;;;;;;;5.95;1.30;;;18.70;99.90;;;;;;5109112;28;20480;-67
2022/09/13 08:52:46;;;;;;;5.78;1.60;;;18.70;99.90;;;;;;5107782;28;20032;-67
2022/09/13 08:55:46;;;;;;;3.80;1.17;;;18.80;99.90;;;;;;5107496;28;20050;-67
2022/09/13 08:58:32;;;;;;;5.80;1.40;;;18.90;99.90;;;;;;5107698;28;20104;-67
2022/09/13 09:01:16;;;;;;;3.17;1.10;;;18.90;99.90;;;;;;5107464;28;20043;-67
2022/09/13 09:03:52;;;;;;;8.10;1.25;;;18.90;99.90;;;;;;5109164;28;20039;-67
2022/09/13 09:06:19;;;;;;;3.30;1.35;;;18.90;99.90;;;;;;5108984;28;20036;-67
2022/09/13 09:09:14;;;;;;;3.28;1.20;;;18.90;99.90;;;;;;5107665;28;20051;-67
2022/09/13 09:11:50;;;;;;;7.72;1.35;;;18.90;99.90;;;;;;5106442;28;20056;-67
2022/09/13 09:14:34;;;;;;;8.02;1.30;;;18.90;99.90;;;;;;5108401;28;20051;-67
2022/09/13 09:17:06;;;;;;;6.53;1.20;;;19.00;99.90;;;;;;5108765;28;20078;-67
2022/09/13 09:19:59;;;;;;;5.97;1.40;;;18.80;99.90;;;;;;5108727;28;20182;-67
2022/09/13 09:22:31;;;;;;;4.30;1.23;;;18.90;99.90;;;;;;5108485;28;20047;-67
2022/09/13 09:24:57;;;;;;;3.85;1.00;;;19.00;99.90;;;;;;5105841;28;20039;-67
2022/09/13 09:27:23;;;;;;;3.95;1.10;;;19.00;99.90;;;;;;5093464;28;20085;-67
2022/09/13 09:29:52;;;;;;;6.00;1.52;;;19.00;99.90;;;;;;5093199;28;20051;-67
2022/09/13 09:32:29;;;;;;;2.10;0.93;;;19.00;99.90;;;;;;5094631;28;20433;-67
2022/09/13 09:35:14;;;;;;;3.95;1.15;;;19.10;99.90;;;;;;5093072;28;20076;-68
2022/09/13 09:37:41;;;;;;;5.70;1.10;;;19.20;99.90;;;;;;5093362;28;20044;-67
2022/09/13 09:40:12;;;;;;;2.88;1.00;;;19.30;99.90;;;;;;5094564;28;20441;-67
2022/09/13 09:42:47;;;;;;;3.92;1.20;;;19.20;99.90;;;;;;5093253;28;20040;-67
2022/09/13 09:45:24;;;;;;;3.50;0.95;;;19.10;99.90;;;;;;5094592;28;20533;-67
2022/09/13 09:47:50;;;;;;;6.68;1.10;;;19.10;99.90;;;;;;5094560;28;20055;-67
2022/09/13 09:50:17;;;;;;;1.80;1.00;;;19.10;99.90;;;;;;5094431;28;20036;-67
2022/09/13 09:53:13;;;;;;;5.90;1.27;;;19.20;99.90;;;;;;5092876;28;20086;-67
2022/09/13 09:55:47;;;;;;;2.13;0.90;;;19.20;99.90;;;;;;5092849;28;20513;-67
2022/09/13 09:58:17;;;;;;;3.22;0.98;;;19.30;99.90;;;;;;5093214;28;20067;-69
2022/09/13 10:00:56;;;;;;;9.05;0.90;;;19.40;99.90;;;;;;5094229;28;20047;-67
2022/09/13 10:03:27;;;;;;;2.60;0.70;;;19.40;99.90;;;;;;5094014;28;20036;-67
2022/09/13 10:06:17;;;;;;;5.33;1.10;;;19.30;99.90;;;;;;5093834;28;20488;-67
2022/09/13 10:08:55;;;;;;;2.95;1.00;;;19.40;99.90;;;;;;5092813;28;20320;-67
2022/09/13 10:11:21;;;;;;;4.60;0.70;;;19.40;99.90;;;;;;5094081;28;20040;-69
2022/09/13 10:13:59;;;;;;;6.47;1.67;;;19.40;99.90;;;;;;5092093;28;20075;-67
2022/09/13 10:16:27;;;;;;;5.28;0.90;;;19.40;99.90;;;;;;5093866;28;20036;-67
2022/09/13 10:18:52;;;;;;;4.07;1.00;;;19.50;99.90;;;;;;5093886;28;20051;-66
2022/09/13 10:21:18;;;;;;;2.38;0.80;;;19.40;99.90;;;;;;5093819;28;20489;-67
2022/09/13 10:23:46;;;;;;;3.60;0.98;;;19.50;99.90;;;;;;5092204;28;20048;-67
2022/09/13 10:26:18;;;;;;;5.55;0.82;;;19.50;99.90;;;;;;5093601;28;20036;-67
2022/09/13 10:29:07;;;;;;;3.85;0.90;;;19.60;99.90;;;;;;5092337;28;20527;-67
2022/09/13 10:31:36;;;;;;;5.22;1.05;;;19.70;99.90;;;;;;5093212;28;20042;-67
2022/09/13 10:34:19;;;;;;;6.00;0.90;;;19.80;99.90;;;;;;5091979;28;20036;-67
2022/09/13 10:36:58;;;;;;;4.00;0.93;;;19.80;99.90;;;;;;5092780;28;20500;-67
2022/09/13 10:39:25;;;;;;;4.97;0.98;;;19.80;99.90;;;;;;5093522;28;20040;-66
2022/09/13 10:41:58;;;;;;;2.42;0.70;;;19.80;99.90;;;;;;5092043;28;20551;-66
2022/09/13 10:44:35;;;;;;;3.85;1.00;;;19.80;99.90;;;;;;5092001;28;20048;-67
2022/09/13 10:47:06;;;;;;;1.48;0.63;;;19.70;99.90;;;;;;5093381;28;20036;-66
2022/09/13 10:49:51;;;;;;;4.45;0.82;;;19.70;99.90;;;;;;5093465;28;20039;-67
2022/09/13 10:52:31;;;;;;;4.00;0.80;;;19.70;99.90;;;;;;5093212;28;20101;-66
2022/09/13 10:55:18;;;;;;;4.50;1.00;;;19.80;99.90;;;;;;5092731;28;20036;-66
2022/09/13 10:57:59;;;;;;;7.57;0.88;;;19.90;99.90;;;;;;5093318;28;20032;-66
2022/09/13 11:01:26;;;;;;;2.97;0.77;;;19.90;99.90;;;;;;5093180;28;20043;-69
2022/09/13 11:04:44;;;;;;;3.05;0.70;;;20.00;99.90;;;;;;5013714;28;20332;-66
2022/09/13 11:07:46;;;;;;;3.92;0.80;;;20.00;99.90;;;;;;4952427;28;20118;-66
2022/09/13 11:10:31;;;;;;;7.75;0.95;;;20.00;99.90;;;;;;5093059;28;20407;-66
2022/09/13 11:13:11;;;;;;;4.75;0.80;;;20.00;99.90;;;;;;5092803;28;20047;-66
2022/09/13 11:15:54;;;;;;;5.07;0.90;;;20.10;99.90;;;;;;5092343;28;20125;-66
2022/09/13 11:18:44;;;;;;;3.17;0.95;;;20.10;99.90;;;;;;5092877;28;20036;-66
2022/09/13 11:21:35;;;;;;;2.92;0.88;;;20.20;99.90;;;;;;5092739;28;20047;-66
2022/09/13 11:24:32;;;;;;;4.88;0.90;;;20.20;99.90;;;;;;5092125;28;20484;-66
2022/09/13 11:27:08;;;;;;;2.70;0.70;;;20.20;99.90;;;;;;5092892;28;20044;-66
2022/09/13 11:29:39;;;;;;;2.60;0.75;;;20.20;99.90;;;;;;5092581;28;20048;-66
2022/09/13 11:32:31;;;;;;;4.85;0.70;;;20.10;99.90;;;;;;5091283;28;20377;-66
2022/09/13 11:35:35;;;;;;;7.68;1.02;;;20.00;99.90;;;;;;5092130;28;20087;-66
2022/09/13 11:38:42;;;;;;;4.32;0.98;;;20.10;99.90;;;;;;5092506;28;20036;-66
2022/09/13 11:41:42;;;;;;;9.23;1.40;;;20.00;99.90;;;;;;5091162;28;20085;-66
2022/09/13 11:44:31;;;;;;;6.75;1.38;;;20.10;99.90;;;;;;5091961;28;20115;-66
2022/09/13 11:47:05;;;;;;;6.88;1.13;;;20.10;99.90;;;;;;5092607;28;20499;-66
2022/09/13 11:50:08;;;;;;;2.75;1.00;;;20.20;99.90;;;;;;5092212;28;20039;-68
2022/09/13 11:52:55;;;;;;;4.75;1.20;;;20.20;99.90;;;;;;5092169;28;20128;-66
2022/09/13 11:55:32;;;;;;;3.50;1.20;;;20.20;99.90;;;;;;5091725;28;20131;-68
2022/09/13 11:58:03;;;;;;;9.25;0.80;;;20.20;99.90;;;;;;5092263;28;20043;-66
2022/09/13 12:00:39;;;;;;;4.25;0.77;;;20.10;99.90;;;;;;5092236;28;20047;-66
2022/09/13 12:03:29;;;;;;;2.25;0.93;;;20.10;99.90;;;;;;5091984;28;20573;-66
2022/09/13 12:06:00;;;;;;;5.63;1.23;;;20.10;99.90;;;;;;5091647;28;20048;-66
2022/09/13 12:08:34;;;;;;;2.15;0.93;;;20.10;99.90;;;;;;5092162;28;20036;-66
2022/09/13 12:11:14;;;;;;;4.72;0.68;;;20.10;99.90;;;;;;5092095;28;20093;-66
2022/09/13 12:13:55;;;;;;;3.17;0.98;;;20.10;99.90;;;;;;5091599;28;20040;-66
2022/09/13 12:16:41;;;;;;;5.07;0.82;;;20.10;99.90;;;;;;5090647;28;20047;-66
2022/09/13 12:19:16;;;;;;;3.58;0.82;;;20.10;99.90;;;;;;5090621;28;20048;-66
2022/09/13 12:21:43;;;;;;;1.45;0.60;;;20.20;99.90;;;;;;5091669;28;20037;-66
2022/09/13 12:24:32;;;;;;;2.13;0.50;;;20.20;99.90;;;;;;5090374;28;20512;-66
2022/09/13 12:27:00;;;;;;;3.35;0.80;;;20.20;99.90;;;;;;5091902;28;20044;-66
2022/09/13 12:29:43;;;;;;;4.65;0.88;;;20.30;99.90;;;;;;5091935;28;20073;-68
2022/09/13 12:32:09;;;;;;;6.50;1.00;;;20.30;99.90;;;;;;5090513;28;20083;-66
2022/09/13 12:34:43;;;;;;;3.60;0.70;;;20.40;99.90;;;;;;5091392;28;20040;-66
2022/09/13 12:37:28;;;;;;;4.15;0.65;;;20.40;99.90;;;;;;5091688;28;20189;-69
2022/09/13 12:40:11;;;;;;;5.78;0.95;;;20.50;99.90;;;;;;5091816;28;20032;-66
2022/09/13 12:42:56;;;;;;;4.22;0.85;;;20.50;99.90;;;;;;5091789;28;20112;-66
2022/09/13 12:45:43;;;;;;;5.05;0.77;;;20.50;99.90;;;;;;5077043;28;20414;-66
2022/09/13 12:48:36;;;;;;;3.75;0.85;;;20.60;99.90;;;;;;5091623;28;20476;-66
2022/09/13 12:51:38;;;;;;;3.35;1.02;;;20.70;99.90;;;;;;5091686;28;20032;-66
2022/09/13 12:54:40;;;;;;;4.18;0.77;;;20.70;99.90;;;;;;5091376;28;20063;-66
2022/09/13 12:57:27;;;;;;;1.70;0.65;;;20.70;99.90;;;;;;5091595;28;20043;-66
2022/09/13 13:00:19;;;;;;;2.88;0.73;;;20.80;99.90;;;;;;5091463;28;20044;-66
2022/09/13 13:02:56;;;;;;;4.90;0.65;;;20.80;99.90;;;;;;5095330;28;20579;-66
2022/09/13 13:05:34;;;;;;;6.10;0.75;;;20.90;99.90;;;;;;5095205;28;20482;-66
2022/09/13 13:08:03;;;;;;;6.72;0.90;;;20.90;99.90;;;;;;5095277;28;20036;-66
2022/09/13 13:10:33;;;;;;;4.35;0.82;;;21.00;99.90;;;;;;5095028;28;20040;-66